createdAt,value
2022-10-05T00:01:22.028Z,100274.22
2022-10-05T00:03:49.172Z,100276.84
2022-10-05T00:06:16.032Z,100280.47
2022-10-05T00:08:43.347Z,100270.28
2022-10-05T00:11:14.684Z,100277.22
2022-10-05T00:13:41.729Z,100270.41
2022-10-05T00:16:11.609Z,100272.19
2022-10-05T00:18:39.712Z,100276.59
2022-10-05T00:21:19.820Z,100282.84
2022-10-05T00:23:46.708Z,100273.25
2022-10-05T00:26:26.183Z,100266.34
2022-10-05T00:28:54.698Z,100266.34
2022-10-05T00:31:30.975Z,100278.53
2022-10-05T00:33:58.301Z,100277.69
2022-10-05T00:36:26.417Z,100281.16
2022-10-05T00:38:54.045Z,100285.47
2022-10-05T00:41:38.840Z,100290.75
2022-10-05T00:44:14.547Z,100297.06
2022-10-05T00:46:49.265Z,100307.50
2022-10-05T00:49:35.470Z,100294.31
2022-10-05T00:52:20.289Z,100296.25
2022-10-05T00:55:10.578Z,100296.25
2022-10-05T00:58:18.843Z,100293.72
2022-10-05T01:01:18.025Z,100302.22
2022-10-05T01:03:53.102Z,100293.94
2022-10-05T01:06:47.989Z,100288.31
2022-10-05T01:09:53.944Z,100300.53
2022-10-05T01:12:30.513Z,100303.88
2022-10-05T01:15:03.152Z,100300.41
2022-10-05T01:17:32.804Z,100306.63
2022-10-05T01:20:23.999Z,100293.56
2022-10-05T01:23:32.690Z,100284.25
2022-10-05T01:26:17.534Z,100279.22
2022-10-05T01:29:02.423Z,100270.84
2022-10-05T01:31:43.138Z,100270.84
2022-10-05T01:34:36.094Z,100272.03
2022-10-05T01:37:21.921Z,100267.94
2022-10-05T01:40:36.544Z,100269.97
2022-10-05T01:43:42.334Z,100267.69
2022-10-05T01:46:50.208Z,100257.63
2022-10-05T01:49:52.174Z,100252.59
2022-10-05T01:52:48.762Z,100268.72
2022-10-05T01:55:39.260Z,100262.84
2022-10-05T01:58:20.374Z,100275.19
2022-10-05T02:01:17.464Z,100268.38
2022-10-05T02:04:09.216Z,100265.00
2022-10-05T02:06:43.802Z,100262.72
2022-10-05T02:09:16.502Z,100276.50
2022-10-05T02:11:50.531Z,100272.16
2022-10-05T02:14:23.556Z,100268.81
2022-10-05T02:16:54.351Z,100261.88
2022-10-05T02:19:25.030Z,100267.38
2022-10-05T02:21:55.764Z,100271.19
2022-10-05T02:24:27.464Z,100275.00
2022-10-05T02:26:56.777Z,100274.16
2022-10-05T02:29:27.863Z,100273.41
2022-10-05T02:31:58.639Z,100266.63
2022-10-05T02:34:36.133Z,100267.56
2022-10-05T02:37:14.969Z,100268.63
2022-10-05T02:39:54.153Z,100268.75
2022-10-05T02:42:33.671Z,100264.03
2022-10-05T02:45:06.414Z,100268.69
2022-10-05T02:47:46.002Z,100268.19
2022-10-05T02:50:24.530Z,100275.00
2022-10-05T02:53:09.350Z,100277.66
2022-10-05T02:55:55.316Z,100280.16
2022-10-05T02:58:27.787Z,100275.75
2022-10-05T03:01:03.456Z,100269.53
2022-10-05T03:03:39.779Z,100262.59
2022-10-05T03:06:25.095Z,100272.78
2022-10-05T03:09:05.451Z,100269.44
2022-10-05T03:11:43.810Z,100253.66
2022-10-05T03:14:36.982Z,100253.38
2022-10-05T03:17:13.494Z,100245.22
2022-10-05T03:20:02.197Z,100262.78
2022-10-05T03:22:49.372Z,100274.22
2022-10-05T03:25:40.780Z,100280.44
2022-10-05T03:28:33.053Z,100284.00
2022-10-05T03:31:02.727Z,100277.06
2022-10-05T03:33:42.794Z,100279.69
2022-10-05T03:36:39.165Z,100283.41
2022-10-05T03:39:36.845Z,100269.53
2022-10-05T03:42:09.725Z,100263.56
2022-10-05T03:45:07.694Z,100265.53
2022-10-05T03:48:12.074Z,100264.91
2022-10-05T03:50:51.182Z,100261.75
2022-10-05T03:53:25.151Z,100263.47
2022-10-05T03:56:03.821Z,100264.53
2022-10-05T03:58:39.626Z,100271.75
2022-10-05T04:01:12.266Z,100267.59
2022-10-05T04:03:46.116Z,100271.25
2022-10-05T04:06:18.698Z,100277.47
2022-10-05T04:08:54.603Z,100264.03
2022-10-05T04:11:37.245Z,100292.72
2022-10-05T04:14:30.268Z,100285.78
2022-10-05T04:17:06.266Z,100285.03
2022-10-05T04:19:40.868Z,100286.94
2022-10-05T04:22:18.493Z,100287.06
2022-10-05T04:25:03.668Z,100279.28
2022-10-05T04:27:39.468Z,100276.97
2022-10-05T04:30:13.276Z,100282.13
2022-10-05T04:33:04.492Z,100278.66
2022-10-05T04:35:50.431Z,100280.56
2022-10-05T04:38:41.491Z,100282.47
2022-10-05T04:41:26.554Z,100280.78
2022-10-05T04:44:31.038Z,100276.59
2022-10-05T04:47:29.670Z,100279.53
2022-10-05T04:50:22.418Z,100278.91
2022-10-05T04:53:24.692Z,100264.53
2022-10-05T04:56:05.371Z,100268.00
2022-10-05T04:58:44.375Z,100265.59
2022-10-05T05:01:59.675Z,100271.06
2022-10-05T05:04:37.972Z,100271.59
2022-10-05T05:07:28.941Z,100266.84
2022-10-05T05:10:19.802Z,100261.81
2022-10-05T05:13:09.770Z,100272.53
2022-10-05T05:15:52.250Z,100278.09
2022-10-05T05:18:37.721Z,100267.88
2022-10-05T05:21:36.512Z,100265.47
2022-10-05T05:24:03.346Z,100270.94
2022-10-05T05:27:01.058Z,100269.25
2022-10-05T05:29:46.496Z,100276.38
2022-10-05T05:32:34.905Z,100287.19
2022-10-05T05:35:53.494Z,100275.31
2022-10-05T05:38:55.326Z,100275.72
2022-10-05T05:41:42.893Z,100286.31
2022-10-05T05:44:26.327Z,100288.91
2022-10-05T05:47:27.248Z,100276.03
2022-10-05T05:50:22.071Z,100281.38
2022-10-05T05:53:30.370Z,100291.22
2022-10-05T05:56:12.436Z,100292.25
2022-10-05T05:59:15.624Z,100291.63
2022-10-05T06:01:51.456Z,100284.81
2022-10-05T06:04:45.252Z,100289.19
2022-10-05T06:07:19.831Z,100274.53
2022-10-05T06:09:53.770Z,100281.56
2022-10-05T06:12:24.617Z,100274.72
2022-10-05T06:15:05.286Z,100280.06
2022-10-05T06:17:36.123Z,100274.97
2022-10-05T06:20:06.804Z,100265.75
2022-10-05T06:22:37.475Z,100287.53
2022-10-05T06:25:04.228Z,100299.06
2022-10-05T06:27:38.606Z,100298.44
2022-10-05T06:30:15.260Z,100282.25
2022-10-05T06:32:51.002Z,100294.44
2022-10-05T06:35:35.160Z,100297.25
2022-10-05T06:38:12.669Z,100301.75
2022-10-05T06:40:45.318Z,100314.06
2022-10-05T06:43:39.548Z,100315.22
2022-10-05T06:46:13.892Z,100308.31
2022-10-05T06:48:59.439Z,100309.25
2022-10-05T06:51:43.428Z,100311.13
2022-10-05T06:54:28.959Z,100311.13
2022-10-05T06:57:26.204Z,100319.91
2022-10-05T07:00:15.273Z,100327.75
2022-10-05T07:03:04.292Z,100337.50
2022-10-05T07:05:46.074Z,100337.50
2022-10-05T07:08:12.920Z,100347.97
2022-10-05T07:10:59.629Z,100356.75
2022-10-05T07:13:56.582Z,100359.94
2022-10-05T07:16:32.288Z,100372.75
2022-10-05T07:19:34.810Z,100378.06
2022-10-05T07:22:19.932Z,100377.63
2022-10-05T07:25:01.913Z,100383.28
2022-10-05T07:27:36.041Z,100410.03
2022-10-05T07:30:05.072Z,100412.28
2022-10-05T07:32:56.850Z,100434.56
2022-10-05T07:35:59.693Z,100431.75
2022-10-05T07:38:54.523Z,100448.22
2022-10-05T07:41:54.821Z,100457.13
2022-10-05T07:44:37.549Z,100453.88
2022-10-05T07:47:32.787Z,100456.66
2022-10-05T07:50:09.830Z,100467.06
2022-10-05T07:52:43.995Z,100450.84
2022-10-05T07:55:25.518Z,100468.88
2022-10-05T07:57:55.085Z,100464.50
2022-10-05T08:00:24.947Z,100463.41
2022-10-05T08:02:54.451Z,100471.91
2022-10-05T08:05:31.790Z,100470.03
2022-10-05T08:08:12.344Z,100474.06
2022-10-05T08:11:02.218Z,100473.66
2022-10-05T08:13:29.034Z,100476.84
2022-10-05T08:16:01.653Z,100476.66
2022-10-05T08:18:46.566Z,100484.22
2022-10-05T08:21:16.418Z,100496.19
2022-10-05T08:23:43.203Z,100488.41
2022-10-05T08:26:12.879Z,100499.66
2022-10-05T08:28:47.655Z,100493.56
2022-10-05T08:31:27.615Z,100506.31
2022-10-05T08:34:01.688Z,100514.50
2022-10-05T08:36:58.932Z,100520.03
2022-10-05T08:39:30.720Z,100522.41
2022-10-05T08:42:23.436Z,100518.75
2022-10-05T08:45:14.939Z,100527.47
2022-10-05T08:47:47.785Z,100520.06
2022-10-05T08:50:23.473Z,100524.19
2022-10-05T08:53:32.113Z,100532.28
2022-10-05T08:56:19.094Z,100536.88
2022-10-05T08:59:03.234Z,100552.84
2022-10-05T09:01:45.568Z,100556.28
2022-10-05T09:04:43.743Z,100560.00
2022-10-05T09:07:17.271Z,100561.56
2022-10-05T09:10:38.370Z,100593.03
2022-10-05T09:14:02.026Z,100598.16
2022-10-05T09:16:54.342Z,100611.56
2022-10-05T09:19:26.963Z,100619.28
2022-10-05T09:22:24.377Z,100611.28
2022-10-05T09:25:01.808Z,100609.50
2022-10-05T09:27:38.563Z,100601.72
2022-10-05T09:30:27.150Z,100587.88
2022-10-05T09:33:00.027Z,100583.94
2022-10-05T09:35:47.537Z,100590.47
2022-10-05T09:38:46.652Z,100612.09
2022-10-05T09:41:32.063Z,100616.59
2022-10-05T09:44:36.586Z,100616.34
2022-10-05T09:47:04.319Z,100630.19
2022-10-05T09:49:49.935Z,100625.50
2022-10-05T09:52:34.864Z,100641.38
2022-10-05T09:55:25.876Z,100622.16
2022-10-05T09:58:48.380Z,100617.41
2022-10-05T10:01:54.224Z,100616.03
2022-10-05T10:04:52.797Z,100630.34
2022-10-05T10:07:59.238Z,100638.66
2022-10-05T10:10:49.133Z,100662.81
2022-10-05T10:13:37.848Z,100683.03
2022-10-05T10:16:32.675Z,100692.22
2022-10-05T10:18:59.714Z,100697.19
2022-10-05T10:21:45.654Z,100693.91
2022-10-05T10:24:24.599Z,100687.72
2022-10-05T10:27:05.869Z,100700.25
2022-10-05T10:29:38.090Z,100678.06
2022-10-05T10:32:20.089Z,100679.25
2022-10-05T10:35:20.454Z,100653.38
2022-10-05T10:37:53.295Z,100649.56
2022-10-05T10:40:42.594Z,100664.44
2022-10-05T10:43:22.398Z,100679.59
2022-10-05T10:46:01.221Z,100681.09
2022-10-05T10:48:31.305Z,100688.34
2022-10-05T10:51:18.768Z,100693.38
2022-10-05T10:53:57.656Z,100685.19
2022-10-05T10:56:35.708Z,100693.78
2022-10-05T10:59:08.348Z,100702.53
2022-10-05T11:01:41.215Z,100704.91
2022-10-05T11:04:32.082Z,100707.16
2022-10-05T11:07:21.201Z,100725.78
2022-10-05T11:09:56.596Z,100722.00
2022-10-05T11:13:00.592Z,100720.19
2022-10-05T11:15:52.498Z,100716.63
2022-10-05T11:18:50.516Z,100721.47
2022-10-05T11:21:30.564Z,100728.38
2022-10-05T11:24:39.089Z,100734.16
2022-10-05T11:27:28.901Z,100718.63
2022-10-05T11:30:25.857Z,100728.47
2022-10-05T11:33:31.464Z,100750.78
2022-10-05T11:36:24.575Z,100789.28
2022-10-05T11:39:09.750Z,100773.50
2022-10-05T11:42:13.609Z,100769.44
2022-10-05T11:45:11.929Z,100763.91
2022-10-05T11:48:04.950Z,100787.19
2022-10-05T11:50:56.614Z,100795.44
2022-10-05T11:53:53.354Z,100798.28
2022-10-05T11:56:44.787Z,100791.06
2022-10-05T11:59:49.352Z,100794.16
2022-10-05T12:02:44.143Z,100820.59
2022-10-05T12:05:27.376Z,100817.22
2022-10-05T12:08:09.276Z,100821.53
2022-10-05T12:10:36.012Z,100836.44
2022-10-05T12:13:07.463Z,100844.03
2022-10-05T12:15:48.363Z,100845.09
2022-10-05T12:18:31.869Z,100852.88
2022-10-05T12:21:02.041Z,100851.34
2022-10-05T12:23:40.354Z,100859.59
2022-10-05T12:26:12.246Z,100861.25
2022-10-05T12:28:47.470Z,100881.53
2022-10-05T12:31:36.447Z,100880.19
2022-10-05T12:34:28.557Z,100881.75
2022-10-05T12:37:08.382Z,100883.88
2022-10-05T12:40:02.009Z,100886.13
2022-10-05T12:42:38.110Z,100903.19
2022-10-05T12:45:36.817Z,100900.09
2022-10-05T12:48:31.621Z,100892.97
2022-10-05T12:51:13.916Z,100895.75
2022-10-05T12:53:48.473Z,100895.34
2022-10-05T12:56:31.322Z,100893.63
2022-10-05T12:59:04.606Z,100900.59
2022-10-05T13:01:43.591Z,100895.19
2022-10-05T13:04:39.289Z,100908.59
2022-10-05T13:07:12.327Z,100908.44
2022-10-05T13:09:53.511Z,100908.09
2022-10-05T13:12:29.938Z,100903.25
2022-10-05T13:15:05.631Z,100902.31
2022-10-05T13:17:47.987Z,100916.72
2022-10-05T13:20:21.545Z,100918.63
2022-10-05T13:22:57.248Z,100923.06
2022-10-05T13:25:31.401Z,100922.00
2022-10-05T13:28:10.616Z,100936.50
2022-10-05T13:30:41.203Z,100940.09
2022-10-05T13:33:20.353Z,100938.97
2022-10-05T13:35:59.572Z,100971.13
2022-10-05T13:38:48.288Z,100978.53
2022-10-05T13:41:24.660Z,100994.50
2022-10-05T13:44:09.414Z,100997.75
2022-10-05T13:46:45.166Z,100996.00
2022-10-05T13:49:38.007Z,100995.63
2022-10-05T13:52:42.895Z,101002.53
2022-10-05T13:55:43.144Z,101006.44
2022-10-05T13:58:35.224Z,100998.19
2022-10-05T14:01:07.842Z,101008.75
2022-10-05T14:03:37.232Z,101011.91
2022-10-05T14:06:12.607Z,101013.78
2022-10-05T14:08:53.567Z,101031.63
2022-10-05T14:11:35.110Z,101038.91
2022-10-05T14:14:14.587Z,101069.38
2022-10-05T14:17:06.039Z,101128.75
2022-10-05T14:19:43.505Z,101110.97
2022-10-05T14:22:22.835Z,101129.22
2022-10-05T14:25:08.009Z,101152.06
2022-10-05T14:27:48.303Z,101146.19
2022-10-05T14:30:15.063Z,101157.78
2022-10-05T14:33:04.590Z,101154.03
2022-10-05T14:35:46.232Z,101146.94
2022-10-05T14:38:20.539Z,101144.72
2022-10-05T14:41:03.666Z,101155.94
2022-10-05T14:43:31.326Z,101140.44
2022-10-05T14:46:27.863Z,101148.75
2022-10-05T14:49:21.698Z,101152.16
2022-10-05T14:51:50.071Z,101150.03
2022-10-05T14:54:35.183Z,101165.19
2022-10-05T14:57:23.350Z,101168.81
2022-10-05T15:00:26.223Z,101170.34
2022-10-05T15:03:01.765Z,101171.84
2022-10-05T15:05:50.274Z,101170.91
2022-10-05T15:08:36.314Z,101165.47
2022-10-05T15:11:14.261Z,101180.75
2022-10-05T15:13:48.834Z,101177.09
2022-10-05T15:16:24.925Z,101192.22
2022-10-05T15:19:04.707Z,101190.38
2022-10-05T15:22:09.575Z,101195.28
2022-10-05T15:24:44.149Z,101217.78
2022-10-05T15:27:26.347Z,101217.88
2022-10-05T15:30:19.855Z,101232.28
2022-10-05T15:32:46.658Z,101237.44
2022-10-05T15:35:22.560Z,101250.75
2022-10-05T15:38:21.075Z,101259.97
2022-10-05T15:41:12.459Z,101268.44
2022-10-05T15:43:53.490Z,101280.25
2022-10-05T15:46:35.849Z,101284.16
2022-10-05T15:49:47.343Z,101278.44
2022-10-05T15:52:29.848Z,101297.53
2022-10-05T15:55:08.784Z,101308.78
2022-10-05T15:58:17.766Z,101313.63
2022-10-05T16:00:49.513Z,101316.34
2022-10-05T16:03:29.725Z,101307.72
2022-10-05T16:06:26.161Z,101317.91
2022-10-05T16:09:17.252Z,101327.06
2022-10-05T16:11:47.086Z,101332.56
2022-10-05T16:14:35.943Z,101374.53
2022-10-05T16:17:16.097Z,101390.78
2022-10-05T16:20:12.821Z,101374.69
2022-10-05T16:22:43.682Z,101386.88
2022-10-05T16:25:51.844Z,101389.66
2022-10-05T16:28:34.800Z,101393.75
2022-10-05T16:31:31.146Z,101397.38
2022-10-05T16:34:17.379Z,101393.09
2022-10-05T16:36:58.663Z,101393.88
2022-10-05T16:39:57.452Z,101391.19
2022-10-05T16:42:46.783Z,101395.59
2022-10-05T16:45:25.762Z,101397.69
2022-10-05T16:48:29.934Z,101415.22
2022-10-05T16:51:07.729Z,101427.53
2022-10-05T16:53:43.274Z,101434.53
2022-10-05T16:56:15.091Z,101438.78
2022-10-05T16:58:48.113Z,101446.50
2022-10-05T17:01:52.836Z,101455.88
2022-10-05T17:04:23.876Z,101457.56
2022-10-05T17:07:10.481Z,101474.91
2022-10-05T17:09:56.496Z,101488.66
2022-10-05T17:12:58.615Z,101492.19
2022-10-05T17:15:39.252Z,101501.69
2022-10-05T17:18:49.605Z,101508.56
2022-10-05T17:21:26.424Z,101505.41
2022-10-05T17:24:12.613Z,101524.66
2022-10-05T17:27:18.211Z,101546.66
2022-10-05T17:30:32.407Z,101544.28
2022-10-05T17:33:25.752Z,101554.06
2022-10-05T17:36:12.536Z,101559.69
2022-10-05T17:38:51.562Z,101565.38
2022-10-05T17:41:19.890Z,101576.78
2022-10-05T17:44:20.582Z,101578.63
2022-10-05T17:46:59.236Z,101585.88
2022-10-05T17:49:26.043Z,101603.69
2022-10-05T17:52:11.474Z,101607.44
2022-10-05T17:55:02.527Z,101613.91
2022-10-05T17:57:30.094Z,101617.13
2022-10-05T18:00:02.069Z,101624.59
2022-10-05T18:02:36.265Z,101633.59
2022-10-05T18:05:07.056Z,101641.72
2022-10-05T18:07:35.841Z,101643.91
2022-10-05T18:10:17.627Z,101654.41
2022-10-05T18:12:48.112Z,101662.41
2022-10-05T18:15:21.410Z,101672.06
2022-10-05T18:17:57.667Z,101670.94
2022-10-05T18:20:24.410Z,101670.78
2022-10-05T18:22:54.322Z,101681.66
2022-10-05T18:25:34.367Z,101686.88
2022-10-05T18:28:27.892Z,101695.56
2022-10-05T18:31:21.408Z,101700.91
2022-10-05T18:33:54.401Z,101712.16
2022-10-05T18:36:53.445Z,101712.28
2022-10-05T18:39:41.948Z,101724.56
2022-10-05T18:42:33.357Z,101725.53
2022-10-05T18:45:22.433Z,101737.91
2022-10-05T18:48:24.649Z,101747.66
2022-10-05T18:51:03.313Z,101752.13
2022-10-05T18:53:47.232Z,101749.78
2022-10-05T18:56:21.773Z,101763.78
2022-10-05T18:59:01.066Z,101762.13
2022-10-05T19:01:50.326Z,101767.22
2022-10-05T19:04:48.392Z,101778.78
2022-10-05T19:07:33.837Z,101780.59
2022-10-05T19:10:21.788Z,101785.94
2022-10-05T19:13:00.852Z,101794.78
2022-10-05T19:15:53.428Z,101800.16
2022-10-05T19:18:25.948Z,101792.59
2022-10-05T19:21:00.205Z,101802.97
2022-10-05T19:23:45.150Z,101810.78
2022-10-05T19:26:17.903Z,101826.53
2022-10-05T19:29:16.888Z,101834.97
2022-10-05T19:31:53.577Z,101872.00
2022-10-05T19:35:05.311Z,101865.47
2022-10-05T19:37:44.141Z,101860.63
2022-10-05T19:40:35.668Z,101856.81
2022-10-05T19:43:14.581Z,101859.47
2022-10-05T19:45:54.894Z,101857.16
2022-10-05T19:48:40.857Z,101852.97
2022-10-05T19:51:32.871Z,101864.50
2022-10-05T19:54:13.924Z,101873.53
2022-10-05T19:56:49.891Z,101879.66
2022-10-05T19:59:24.723Z,101885.81
2022-10-05T20:01:54.177Z,101892.13
2022-10-05T20:04:43.597Z,101892.91
2022-10-05T20:07:23.531Z,101895.63
2022-10-05T20:09:58.093Z,101893.94
2022-10-05T20:13:00.191Z,101896.59
2022-10-05T20:15:50.769Z,101898.31
2022-10-05T20:19:06.014Z,101914.50
2022-10-05T20:21:44.230Z,101916.00
2022-10-05T20:24:15.623Z,101921.13
2022-10-05T20:27:09.636Z,101922.84
2022-10-05T20:29:42.745Z,101937.00
2022-10-05T20:32:13.844Z,101933.59
2022-10-05T20:34:43.640Z,101931.19
2022-10-05T20:37:15.655Z,101942.63
2022-10-05T20:39:42.973Z,101947.97
2022-10-05T20:42:10.729Z,101957.66
2022-10-05T20:44:38.201Z,101962.19
2022-10-05T20:47:08.887Z,101968.94
2022-10-05T20:49:36.949Z,101981.88
2022-10-05T20:52:06.090Z,101982.63
2022-10-05T20:54:33.070Z,101984.09
2022-10-05T20:57:00.069Z,101991.75
2022-10-05T20:59:27.037Z,101992.50
2022-10-05T21:01:53.948Z,101988.28
2022-10-05T21:04:23.784Z,101990.25
2022-10-05T21:06:51.110Z,101996.63
2022-10-05T21:09:19.629Z,101995.97
2022-10-05T21:11:49.490Z,101993.59
2022-10-05T21:14:17.145Z,102004.25
2022-10-05T21:16:46.000Z,102001.88
2022-10-05T21:19:14.483Z,102010.72
2022-10-05T21:21:43.086Z,102008.28
2022-10-05T21:24:11.684Z,102019.72
2022-10-05T21:26:38.570Z,102014.56
2022-10-05T21:29:10.206Z,102023.41
2022-10-05T21:31:39.408Z,102032.19
2022-10-05T21:34:06.271Z,102028.75
2022-10-05T21:36:33.702Z,102022.78
2022-10-05T21:39:01.004Z,102036.59
2022-10-05T21:41:28.080Z,102036.59
2022-10-05T21:43:55.027Z,102042.72
2022-10-05T21:46:26.586Z,102049.53
2022-10-05T21:48:54.770Z,102042.53
2022-10-05T21:51:25.420Z,102056.41
2022-10-05T21:53:58.776Z,102049.38
2022-10-05T21:56:30.595Z,102063.97
2022-10-05T21:58:58.234Z,102059.63
2022-10-05T22:01:25.344Z,102070.03
2022-10-05T22:03:52.341Z,102063.91
2022-10-05T22:06:19.187Z,102073.31
2022-10-05T22:08:46.183Z,102073.19
2022-10-05T22:11:18.306Z,102079.00
2022-10-05T22:13:53.299Z,102072.59
2022-10-05T22:16:23.805Z,102070.50
2022-10-05T22:18:50.811Z,102078.16
2022-10-05T22:21:17.913Z,102079.66
2022-10-05T22:23:46.027Z,102088.09
2022-10-05T22:26:16.865Z,102094.84
2022-10-05T22:28:45.941Z,102096.41
2022-10-05T22:31:13.439Z,102103.22
2022-10-05T22:33:41.354Z,102101.28
2022-10-05T22:36:08.994Z,102098.56
2022-10-05T22:38:35.792Z,102103.69
2022-10-05T22:41:02.794Z,102103.75
2022-10-05T22:43:29.636Z,102103.00
2022-10-05T22:45:56.530Z,102104.06
2022-10-05T22:48:23.470Z,102102.56
2022-10-05T22:50:50.409Z,102099.28
2022-10-05T22:53:17.454Z,102095.94
2022-10-05T22:55:44.397Z,102100.31
2022-10-05T22:58:11.406Z,102102.88
2022-10-05T23:00:57.515Z,102096.78
2022-10-05T23:03:25.268Z,102091.63
2022-10-05T23:06:00.820Z,102097.03
2022-10-05T23:08:28.317Z,102098.00
2022-10-05T23:10:59.915Z,102102.53
2022-10-05T23:13:26.705Z,102099.16
2022-10-05T23:15:53.539Z,102107.00
2022-10-05T23:18:20.344Z,102102.56
2022-10-05T23:20:54.306Z,102099.84
2022-10-05T23:23:23.041Z,102102.28
2022-10-05T23:25:50.388Z,102102.31
2022-10-05T23:28:17.296Z,102093.72
2022-10-05T23:30:44.535Z,102115.53
2022-10-05T23:33:11.488Z,102107.78
2022-10-05T23:35:38.328Z,102103.56
2022-10-05T23:38:05.477Z,102098.56
2022-10-05T23:40:32.468Z,102109.16
2022-10-05T23:42:59.421Z,102110.13
2022-10-05T23:45:26.358Z,102119.84
2022-10-05T23:47:53.250Z,102117.31
2022-10-05T23:50:21.331Z,102112.13
2022-10-05T23:52:48.372Z,102112.94
2022-10-05T23:55:15.365Z,102111.91
2022-10-05T23:57:42.416Z,102120.44
